createdAt,value
2018-12-07T00:01:18.778Z,16.40
2018-12-07T00:03:48.497Z,16.70
2018-12-07T00:06:19.124Z,16.60
2018-12-07T00:08:48.516Z,18.87
2018-12-07T00:11:18.244Z,19.33
2018-12-07T00:13:48.080Z,19.40
2018-12-07T00:16:17.508Z,20.63
2018-12-07T00:18:47.088Z,20.77
2018-12-07T00:21:16.550Z,19.43
2018-12-07T00:23:46.135Z,18.80
2018-12-07T00:26:15.529Z,16.93
2018-12-07T00:28:45.096Z,20.90
2018-12-07T00:31:14.397Z,18.00
2018-12-07T00:33:43.888Z,15.83
2018-12-07T00:36:13.557Z,15.50
2018-12-07T00:38:42.945Z,14.43
2018-12-07T00:41:12.568Z,17.13
2018-12-07T00:43:42.092Z,15.50
2018-12-07T00:46:11.772Z,13.77
2018-12-07T00:48:41.312Z,14.33
2018-12-07T00:51:11.061Z,16.20
2018-12-07T00:53:40.664Z,16.33
2018-12-07T00:56:09.999Z,15.93
2018-12-07T00:58:40.356Z,16.93
2018-12-07T01:01:09.641Z,15.47
2018-12-07T01:03:39.089Z,14.57
2018-12-07T01:06:08.665Z,16.60
2018-12-07T01:08:38.461Z,17.03
2018-12-07T01:11:07.938Z,17.03
2018-12-07T01:13:37.385Z,20.03
2018-12-07T01:16:06.900Z,26.43
2018-12-07T01:18:36.295Z,24.40
2018-12-07T01:21:05.866Z,25.77
2018-12-07T01:23:35.361Z,33.40
2018-12-07T01:26:05.070Z,33.53
2018-12-07T01:28:34.379Z,37.37
2018-12-07T01:31:04.010Z,32.70
2018-12-07T01:33:33.469Z,21.93
2018-12-07T01:36:02.856Z,23.80
2018-12-07T01:38:32.583Z,23.43
2018-12-07T01:41:02.018Z,22.43
2018-12-07T01:43:31.623Z,21.93
2018-12-07T01:46:01.288Z,21.93
2018-12-07T01:48:30.525Z,19.33
2018-12-07T01:51:00.187Z,19.33
2018-12-07T01:53:29.529Z,18.83
2018-12-07T01:55:59.056Z,20.00
2018-12-07T01:58:28.583Z,20.00
2018-12-07T02:00:58.303Z,20.07
2018-12-07T02:03:27.591Z,20.20
2018-12-07T02:05:57.024Z,21.43
2018-12-07T02:08:26.866Z,22.10
2018-12-07T02:10:56.387Z,22.67
2018-12-07T02:13:25.919Z,20.00
2018-12-07T02:15:55.485Z,20.57
2018-12-07T02:18:24.832Z,19.93
2018-12-07T02:20:54.076Z,18.43
2018-12-07T02:23:23.705Z,18.87
2018-12-07T02:25:53.279Z,25.87
2018-12-07T02:28:22.777Z,23.30
2018-12-07T02:30:52.416Z,24.77
2018-12-07T02:33:22.117Z,24.93
2018-12-07T02:35:51.903Z,21.30
2018-12-07T02:38:21.200Z,21.10
2018-12-07T02:40:50.608Z,20.63
2018-12-07T02:43:19.957Z,22.17
2018-12-07T02:45:49.442Z,19.50
2018-12-07T02:48:19.084Z,18.57
2018-12-07T02:50:48.539Z,19.73
2018-12-07T02:53:18.073Z,18.37
2018-12-07T02:55:47.729Z,16.17
2018-12-07T02:58:17.063Z,15.83
2018-12-07T03:00:46.772Z,19.47
2018-12-07T03:03:16.521Z,20.77
2018-12-07T03:05:45.817Z,17.50
2018-12-07T03:08:15.718Z,17.30
2018-12-07T03:10:45.152Z,20.07
2018-12-07T03:13:14.782Z,19.67
2018-12-07T03:15:44.548Z,17.20
2018-12-07T03:18:29.403Z,15.60
2018-12-07T03:20:59.318Z,14.33
2018-12-07T03:23:28.795Z,15.27
2018-12-07T03:25:58.062Z,15.10
2018-12-07T03:28:28.036Z,15.63
2018-12-07T03:30:57.487Z,15.07
2018-12-07T03:33:26.890Z,14.97
2018-12-07T03:35:56.137Z,17.13
2018-12-07T03:38:26.431Z,16.47
2018-12-07T03:40:56.280Z,20.17
2018-12-07T03:43:25.893Z,23.70
2018-12-07T03:45:55.346Z,20.47
2018-12-07T03:48:24.982Z,19.50
2018-12-07T03:50:54.582Z,18.63
2018-12-07T03:53:24.626Z,18.60
2018-12-07T03:55:54.006Z,19.27
2018-12-07T03:58:24.402Z,17.00
2018-12-07T04:00:54.485Z,19.43
2018-12-07T04:03:24.032Z,19.93
2018-12-07T04:05:53.353Z,25.70
2018-12-07T04:08:22.993Z,26.40
2018-12-07T04:10:52.396Z,25.63
2018-12-07T04:13:21.805Z,33.93
2018-12-07T04:15:51.827Z,36.37
2018-12-07T04:18:21.236Z,28.80
2018-12-07T04:20:50.708Z,28.20
2018-12-07T04:23:20.552Z,27.27
2018-12-07T04:25:49.852Z,29.80
2018-12-07T04:28:21.619Z,33.23
2018-12-07T04:30:51.456Z,35.00
2018-12-07T04:33:20.864Z,37.10
2018-12-07T04:35:50.450Z,34.93
2018-12-07T04:38:20.011Z,33.53
2018-12-07T04:40:49.618Z,33.77
2018-12-07T04:43:19.253Z,32.10
2018-12-07T04:45:48.918Z,29.90
2018-12-07T04:48:18.686Z,32.07
2018-12-07T04:50:48.247Z,30.90
2018-12-07T04:53:17.747Z,33.30
2018-12-07T04:55:47.568Z,32.57
2018-12-07T04:58:17.047Z,33.00
2018-12-07T05:00:46.376Z,36.97
2018-12-07T05:03:16.232Z,36.10
2018-12-07T05:05:45.688Z,36.53
2018-12-07T05:08:15.212Z,34.87
2018-12-07T05:10:44.818Z,34.93
2018-12-07T05:13:14.361Z,35.80
2018-12-07T05:15:44.044Z,37.97
2018-12-07T05:18:13.538Z,37.50
2018-12-07T05:20:43.171Z,35.73
2018-12-07T05:23:12.755Z,37.93
2018-12-07T05:25:42.629Z,36.80
2018-12-07T05:28:11.981Z,35.67
2018-12-07T05:30:41.307Z,36.53
2018-12-07T05:33:11.008Z,36.10
2018-12-07T05:35:40.469Z,38.77
2018-12-07T05:38:09.777Z,35.63
2018-12-07T05:40:39.405Z,32.53
2018-12-07T05:43:09.120Z,37.60
2018-12-07T05:45:38.725Z,37.53
2018-12-07T05:48:08.315Z,35.87
2018-12-07T05:50:38.069Z,40.23
2018-12-07T05:53:07.423Z,43.00
2018-12-07T05:55:37.030Z,43.63
2018-12-07T05:58:06.808Z,40.80
2018-12-07T06:00:36.344Z,38.67
2018-12-07T06:03:06.060Z,41.43
2018-12-07T06:05:35.821Z,60.00
2018-12-07T06:08:05.153Z,63.00
2018-12-07T06:10:34.778Z,59.37
2018-12-07T06:13:05.560Z,53.67
2018-12-07T06:15:35.033Z,62.30
2018-12-07T06:18:04.552Z,78.67
2018-12-07T06:20:34.427Z,59.63
2018-12-07T06:23:03.866Z,58.37
2018-12-07T06:25:33.314Z,66.50
2018-12-07T06:28:02.863Z,83.40
2018-12-07T06:30:32.257Z,90.57
2018-12-07T06:33:01.821Z,82.37
2018-12-07T06:35:31.488Z,63.20
2018-12-07T06:38:01.209Z,63.37
2018-12-07T06:40:30.840Z,58.87
2018-12-07T06:43:00.512Z,62.43
2018-12-07T06:45:29.957Z,60.80
2018-12-07T06:47:59.463Z,52.80
2018-12-07T06:50:28.909Z,41.63
2018-12-07T06:52:58.342Z,43.47
2018-12-07T06:55:28.189Z,46.93
2018-12-07T06:57:57.664Z,46.63
2018-12-07T07:00:27.172Z,40.57
2018-12-07T07:02:57.095Z,76.60
2018-12-07T07:05:26.634Z,48.40
2018-12-07T07:07:56.378Z,44.17
2018-12-07T07:10:25.873Z,45.17
2018-12-07T07:12:55.320Z,48.70
2018-12-07T07:15:24.773Z,53.37
2018-12-07T07:17:54.361Z,52.57
2018-12-07T07:20:23.888Z,52.63
2018-12-07T07:22:53.889Z,43.03
2018-12-07T07:25:24.389Z,37.43
2018-12-07T07:27:54.245Z,37.40
2018-12-07T07:30:24.707Z,37.20
2018-12-07T07:32:54.370Z,43.93
2018-12-07T07:35:23.880Z,46.07
2018-12-07T07:37:53.378Z,50.70
2018-12-07T07:40:22.872Z,51.53
2018-12-07T07:42:52.334Z,50.63
2018-12-07T07:45:21.866Z,47.37
2018-12-07T07:47:51.373Z,44.93
2018-12-07T07:50:20.916Z,45.10
2018-12-07T07:52:50.386Z,44.87
2018-12-07T07:55:20.054Z,41.43
2018-12-07T07:57:49.648Z,48.27
2018-12-07T08:00:19.433Z,50.73
2018-12-07T08:02:48.964Z,46.27
2018-12-07T08:05:18.460Z,46.90
2018-12-07T08:07:48.125Z,45.57
2018-12-07T08:10:17.759Z,41.53
2018-12-07T08:12:47.510Z,34.03
2018-12-07T08:15:16.857Z,37.07
2018-12-07T08:17:46.392Z,34.30
2018-12-07T08:20:15.972Z,34.17
2018-12-07T08:22:45.612Z,32.37
2018-12-07T08:25:15.000Z,33.37
2018-12-07T08:27:44.425Z,31.23
2018-12-07T08:30:14.094Z,28.03
2018-12-07T08:32:43.444Z,29.87
2018-12-07T08:35:12.853Z,29.87
2018-12-07T08:37:42.412Z,29.00
2018-12-07T08:40:12.049Z,28.17
2018-12-07T08:42:41.464Z,29.10
2018-12-07T08:45:11.322Z,29.77
2018-12-07T08:47:40.901Z,27.77
2018-12-07T08:50:10.797Z,27.33
2018-12-07T08:52:40.103Z,28.57
2018-12-07T08:55:09.505Z,26.43
2018-12-07T08:57:38.742Z,28.23
2018-12-07T09:00:10.348Z,29.17
2018-12-07T09:02:40.849Z,27.60
2018-12-07T09:05:10.196Z,28.70
2018-12-07T09:07:39.914Z,28.03
2018-12-07T09:10:09.328Z,28.17
2018-12-07T09:12:38.745Z,29.10
2018-12-07T09:15:08.214Z,27.33
2018-12-07T09:17:37.599Z,27.30
2018-12-07T09:20:08.380Z,32.90
2018-12-07T09:22:37.770Z,31.37
2018-12-07T09:25:08.256Z,33.80
2018-12-07T09:27:37.853Z,32.03
2018-12-07T09:30:07.280Z,32.70
2018-12-07T09:32:36.929Z,36.33
2018-12-07T09:35:06.988Z,39.23
2018-12-07T09:37:36.349Z,37.77
2018-12-07T09:40:06.039Z,39.27
2018-12-07T09:42:35.300Z,37.50
2018-12-07T09:45:05.916Z,41.93
2018-12-07T09:47:35.533Z,39.87
2018-12-07T09:50:05.757Z,39.23
2018-12-07T09:52:35.284Z,40.37
2018-12-07T09:55:05.212Z,40.07
2018-12-07T09:57:34.652Z,42.07
2018-12-07T10:00:04.545Z,42.40
2018-12-07T10:02:34.296Z,40.77
2018-12-07T10:05:03.861Z,43.27
2018-12-07T10:07:33.405Z,43.93
2018-12-07T10:10:02.811Z,42.20
2018-12-07T10:12:32.544Z,40.40
2018-12-07T10:15:01.999Z,40.77
2018-12-07T10:17:31.431Z,35.50
2018-12-07T10:20:00.960Z,36.87
2018-12-07T10:22:30.553Z,37.10
2018-12-07T10:24:59.854Z,35.63
2018-12-07T10:27:29.737Z,39.03
2018-12-07T10:29:59.297Z,42.33
2018-12-07T10:32:28.716Z,40.10
2018-12-07T10:34:58.035Z,41.73
2018-12-07T10:37:27.436Z,42.07
2018-12-07T10:39:56.850Z,41.30
2018-12-07T10:42:26.249Z,41.67
2018-12-07T10:44:55.575Z,44.20
2018-12-07T10:47:25.105Z,43.13
2018-12-07T10:49:54.792Z,46.90
2018-12-07T10:52:24.266Z,39.47
2018-12-07T10:54:53.786Z,41.03
2018-12-07T10:57:23.269Z,40.47
2018-12-07T10:59:52.818Z,41.60
2018-12-07T11:03:25.341Z,36.43
2018-12-07T11:05:59.945Z,35.90
2018-12-07T11:08:34.702Z,37.57
2018-12-07T11:11:09.193Z,36.67
2018-12-07T11:14:12.143Z,37.30
2018-12-07T11:16:47.189Z,35.60
2018-12-07T11:19:21.956Z,37.80
2018-12-07T11:21:56.524Z,35.80
2018-12-07T11:24:31.256Z,37.87
2018-12-07T11:27:05.850Z,40.60
2018-12-07T11:29:40.405Z,41.63
2018-12-07T11:35:09.432Z,42.57
2018-12-07T11:37:39.006Z,40.53
2018-12-07T11:40:09.012Z,42.67
2018-12-07T11:42:40.431Z,40.70
2018-12-07T11:45:10.127Z,43.97
2018-12-07T11:47:39.839Z,36.33
2018-12-07T11:50:10.413Z,39.53
2018-12-07T11:52:39.685Z,38.67
2018-12-07T11:55:09.282Z,37.27
2018-12-07T11:57:40.036Z,41.10
2018-12-07T12:00:10.156Z,39.90
2018-12-07T12:02:39.841Z,37.83
2018-12-07T12:05:09.408Z,40.80
2018-12-07T12:07:38.949Z,39.10
2018-12-07T12:10:08.545Z,41.17
2018-12-07T12:12:40.309Z,37.33
2018-12-07T12:15:09.672Z,38.87
2018-12-07T12:17:39.106Z,41.80
2018-12-07T12:20:09.650Z,47.23
2018-12-07T12:22:39.216Z,47.23
2018-12-07T12:25:08.726Z,44.27
2018-12-07T12:27:38.341Z,43.83
2018-12-07T12:30:08.610Z,43.07
2018-12-07T12:32:37.984Z,37.00
2018-12-07T12:35:07.842Z,37.70
2018-12-07T12:37:37.531Z,36.93
2018-12-07T12:40:06.934Z,43.00
2018-12-07T12:42:36.486Z,41.43
2018-12-07T12:45:06.350Z,38.07
2018-12-07T12:47:35.636Z,40.43
2018-12-07T12:50:08.219Z,38.20
2018-12-07T12:52:37.850Z,38.30
2018-12-07T12:55:07.301Z,41.40
2018-12-07T12:57:36.945Z,45.77
2018-12-07T13:00:06.781Z,44.27
2018-12-07T13:02:36.422Z,44.37
2018-12-07T13:05:06.308Z,39.27
2018-12-07T13:07:36.820Z,39.20
2018-12-07T13:10:06.629Z,39.37
2018-12-07T13:12:36.166Z,40.20
2018-12-07T13:15:06.459Z,41.03
2018-12-07T13:17:35.748Z,34.83
2018-12-07T13:20:06.262Z,34.30
2018-12-07T13:22:35.860Z,39.37
2018-12-07T13:25:05.903Z,37.33
2018-12-07T13:27:35.525Z,38.37
2018-12-07T13:30:05.584Z,42.53
2018-12-07T13:32:35.273Z,44.80
2018-12-07T13:35:04.824Z,51.03
2018-12-07T13:37:34.069Z,47.60
2018-12-07T13:40:04.393Z,55.07
2018-12-07T13:42:34.563Z,51.20
2018-12-07T13:45:04.705Z,49.20
2018-12-07T13:47:34.711Z,50.03
2018-12-07T13:50:10.299Z,49.63
2018-12-07T13:52:39.952Z,50.97
2018-12-07T13:55:09.602Z,52.57
2018-12-07T13:57:41.415Z,54.03
2018-12-07T14:00:11.531Z,50.07
2018-12-07T14:02:41.263Z,48.77
2018-12-07T14:05:10.989Z,50.23
2018-12-07T14:07:40.752Z,50.97
2018-12-07T14:10:10.570Z,48.20
2018-12-07T14:12:40.472Z,49.83
2018-12-07T14:15:10.650Z,50.37
2018-12-07T14:17:40.366Z,51.10
2018-12-07T14:20:10.673Z,51.57
2018-12-07T14:22:40.326Z,52.40
2018-12-07T14:25:09.929Z,50.30
2018-12-07T14:27:39.819Z,49.07
2018-12-07T14:30:10.997Z,52.33
2018-12-07T14:32:40.774Z,49.43
2018-12-07T14:35:10.646Z,54.83
2018-12-07T14:37:40.258Z,57.27
2018-12-07T14:40:09.900Z,56.70
2018-12-07T14:42:39.465Z,56.43
2018-12-07T14:45:09.602Z,56.63
2018-12-07T14:47:40.551Z,61.13
2018-12-07T14:50:10.221Z,63.27
2018-12-07T14:52:39.962Z,62.13
2018-12-07T14:55:09.264Z,80.23
2018-12-07T14:57:38.641Z,82.17
2018-12-07T15:00:09.441Z,63.40
2018-12-07T15:02:39.242Z,34.73
2018-12-07T15:05:08.646Z,57.40
2018-12-07T15:07:38.265Z,65.47
2018-12-07T15:10:09.167Z,52.70
2018-12-07T15:12:39.160Z,34.10
2018-12-07T15:15:09.233Z,22.33
2018-12-07T15:17:38.935Z,20.60
2018-12-07T15:20:09.847Z,20.10
2018-12-07T15:22:39.604Z,18.53
2018-12-07T15:25:09.392Z,13.83
2018-12-07T15:27:38.822Z,26.70
2018-12-07T15:30:09.892Z,54.90
2018-12-07T15:32:40.593Z,80.73
2018-12-07T15:35:10.168Z,83.17
2018-12-07T15:37:40.065Z,87.63
2018-12-07T15:40:10.913Z,65.80
2018-12-07T15:42:40.677Z,62.67
2018-12-07T15:45:10.554Z,66.03
2018-12-07T15:47:40.480Z,70.80
2018-12-07T15:50:10.377Z,76.33
2018-12-07T15:52:40.014Z,88.63
2018-12-07T15:55:10.182Z,92.07
2018-12-07T15:57:40.174Z,99.40
2018-12-07T16:00:10.245Z,97.10
2018-12-07T16:02:39.965Z,90.00
2018-12-07T16:05:09.573Z,88.33
2018-12-07T16:07:39.366Z,78.10
2018-12-07T16:10:09.880Z,60.90
2018-12-07T16:12:39.537Z,72.27
2018-12-07T16:15:09.298Z,68.50
2018-12-07T16:17:38.934Z,64.07
2018-12-07T16:20:13.393Z,65.93
2018-12-07T16:22:43.105Z,67.70
2018-12-07T16:25:12.440Z,51.60
2018-12-07T16:27:42.040Z,50.10
2018-12-07T16:30:11.767Z,62.80
2018-12-07T16:32:41.610Z,68.63
2018-12-07T16:35:11.453Z,60.37
2018-12-07T16:37:41.221Z,72.83
2018-12-07T16:40:11.084Z,78.40
2018-12-07T16:42:40.508Z,70.27
2018-12-07T16:45:10.117Z,79.40
2018-12-07T16:47:39.783Z,83.03
2018-12-07T16:50:09.247Z,84.83
2018-12-07T16:52:39.190Z,87.13
2018-12-07T16:55:08.951Z,92.17
2018-12-07T16:57:38.746Z,91.57
2018-12-07T17:00:09.238Z,93.77
2018-12-07T17:02:39.161Z,91.23
2018-12-07T17:05:10.114Z,90.37
2018-12-07T17:07:39.751Z,92.53
2018-12-07T17:10:09.491Z,89.63
2018-12-07T17:12:39.339Z,91.83
2018-12-07T17:15:09.264Z,90.40
2018-12-07T17:17:39.094Z,91.23
2018-12-07T17:20:09.117Z,106.33
2018-12-07T17:22:38.811Z,109.63
2018-12-07T17:25:08.890Z,108.83
2018-12-07T17:27:38.739Z,97.43
2018-12-07T17:30:08.425Z,112.53
2018-12-07T17:32:38.276Z,108.00
2018-12-07T17:35:07.981Z,99.93
2018-12-07T17:37:37.395Z,121.90
2018-12-07T17:40:07.763Z,123.07
2018-12-07T17:42:37.429Z,132.57
2018-12-07T17:45:07.499Z,139.83
2018-12-07T17:47:37.242Z,92.00
2018-12-07T17:50:09.021Z,118.80
2018-12-07T17:52:39.206Z,79.57
2018-12-07T17:55:08.901Z,83.53
2018-12-07T17:57:38.678Z,96.07
2018-12-07T18:00:11.335Z,88.43
2018-12-07T18:02:41.201Z,93.57
2018-12-07T18:05:10.628Z,89.30
2018-12-07T18:07:40.381Z,88.20
2018-12-07T18:10:10.540Z,93.97
2018-12-07T18:12:39.896Z,91.33
2018-12-07T18:15:10.878Z,102.83
2018-12-07T18:17:41.123Z,104.87
2018-12-07T18:20:10.677Z,98.57
2018-12-07T18:22:40.488Z,100.33
2018-12-07T18:25:09.881Z,109.43
2018-12-07T18:27:39.755Z,119.30
2018-12-07T18:30:09.571Z,107.07
2018-12-07T18:32:39.148Z,107.53
2018-12-07T18:35:09.535Z,112.90
2018-12-07T18:37:38.941Z,103.13
2018-12-07T18:40:09.245Z,105.93
2018-12-07T18:42:39.069Z,97.47
2018-12-07T18:45:09.096Z,98.20
2018-12-07T18:47:38.951Z,116.53
2018-12-07T18:50:09.586Z,111.83
2018-12-07T18:52:39.167Z,112.33
2018-12-07T18:55:10.655Z,100.10
2018-12-07T18:57:40.310Z,108.43
2018-12-07T19:00:10.308Z,104.97
2018-12-07T19:02:46.321Z,99.53
2018-12-07T19:05:15.663Z,127.10
2018-12-07T19:07:45.419Z,113.23
2018-12-07T19:10:15.608Z,120.57
2018-12-07T19:12:45.396Z,118.90
2018-12-07T19:15:14.842Z,111.67
2018-12-07T19:17:44.525Z,112.90
2018-12-07T19:20:14.344Z,108.17
2018-12-07T19:22:43.940Z,115.90
2018-12-07T19:25:13.766Z,113.77
2018-12-07T19:27:43.625Z,118.00
2018-12-07T19:30:14.790Z,112.93
2018-12-07T19:32:46.274Z,103.87
2018-12-07T19:35:15.880Z,111.77
2018-12-07T19:37:45.487Z,99.53
2018-12-07T19:40:15.159Z,107.13
2018-12-07T19:42:44.746Z,101.77
2018-12-07T19:45:14.558Z,89.80
2018-12-07T19:47:44.270Z,87.50
2018-12-07T19:50:13.761Z,79.27
2018-12-07T19:52:43.638Z,88.57
2018-12-07T19:55:13.508Z,86.47
2018-12-07T19:57:43.518Z,82.30
2018-12-07T20:00:14.092Z,90.13
2018-12-07T20:02:44.187Z,95.30
2018-12-07T20:05:14.084Z,89.43
2018-12-07T20:07:43.388Z,107.10
2018-12-07T20:10:13.107Z,94.47
2018-12-07T20:12:43.358Z,95.53
2018-12-07T20:15:13.327Z,94.77
2018-12-07T20:17:43.207Z,81.87
2018-12-07T20:20:13.158Z,90.47
2018-12-07T20:22:42.569Z,94.40
2018-12-07T20:25:12.411Z,89.53
2018-12-07T20:27:42.289Z,93.60
2018-12-07T20:30:12.558Z,89.17
2018-12-07T20:32:43.547Z,76.60
2018-12-07T20:35:13.480Z,86.83
2018-12-07T20:37:42.944Z,85.43
2018-12-07T20:40:12.396Z,81.70
2018-12-07T20:42:42.579Z,79.33
2018-12-07T20:45:12.286Z,80.43
2018-12-07T20:47:42.233Z,56.70
2018-12-07T20:50:12.389Z,54.53
2018-12-07T20:52:42.233Z,65.13
2018-12-07T20:55:12.410Z,51.00
2018-12-07T20:57:41.905Z,49.40
2018-12-07T21:00:11.917Z,50.20
2018-12-07T21:02:42.073Z,52.83
2018-12-07T21:05:59.076Z,63.60
2018-12-07T21:09:32.726Z,46.87
2018-12-07T21:12:09.804Z,58.53
2018-12-07T21:14:44.213Z,44.77
2018-12-07T21:17:23.682Z,49.70
2018-12-07T21:19:57.629Z,54.67
2018-12-07T21:22:27.718Z,60.43
2018-12-07T21:24:57.248Z,59.80
2018-12-07T21:27:26.923Z,61.73
2018-12-07T21:32:58.517Z,57.67
2018-12-07T21:35:27.964Z,55.10
2018-12-07T21:37:57.527Z,56.97
2018-12-07T21:40:30.496Z,58.83
2018-12-07T21:43:00.171Z,56.03
2018-12-07T21:45:30.181Z,66.87
2018-12-07T21:48:21.746Z,68.43
2018-12-07T21:50:56.993Z,64.67
2018-12-07T21:53:27.126Z,61.20
2018-12-07T21:55:56.509Z,65.63
2018-12-07T21:58:26.037Z,96.27
2018-12-07T22:00:55.646Z,80.03
2018-12-07T22:03:25.156Z,93.90
2018-12-07T22:05:55.116Z,103.27
2018-12-07T22:08:24.977Z,84.10
2018-12-07T22:10:54.844Z,102.13
2018-12-07T22:13:24.437Z,94.77
2018-12-07T22:15:54.041Z,93.53
2018-12-07T22:18:23.576Z,95.27
2018-12-07T22:20:53.088Z,79.73
2018-12-07T22:23:23.057Z,96.73
2018-12-07T22:25:52.932Z,100.73
2018-12-07T22:28:22.492Z,110.20
2018-12-07T22:30:51.912Z,109.87
2018-12-07T22:33:21.301Z,110.27
2018-12-07T22:35:50.641Z,111.27
2018-12-07T22:38:20.322Z,114.80
2018-12-07T22:40:50.140Z,102.50
2018-12-07T22:43:19.930Z,111.20
2018-12-07T22:45:49.677Z,109.73
2018-12-07T22:48:19.366Z,119.23
2018-12-07T22:50:48.809Z,112.43
2018-12-07T22:53:18.289Z,124.17
2018-12-07T22:55:47.744Z,120.83
2018-12-07T22:58:17.135Z,115.57
2018-12-07T23:00:48.497Z,114.57
2018-12-07T23:03:18.733Z,112.97
2018-12-07T23:05:48.463Z,101.93
2018-12-07T23:08:18.346Z,94.13
2018-12-07T23:10:47.746Z,94.10
2018-12-07T23:13:17.219Z,89.83
2018-12-07T23:15:46.762Z,89.80
2018-12-07T23:18:16.164Z,81.63
2018-12-07T23:20:45.713Z,86.73
2018-12-07T23:23:15.156Z,86.67
2018-12-07T23:25:44.890Z,85.33
2018-12-07T23:28:19.438Z,84.17
2018-12-07T23:30:45.907Z,76.93
2018-12-07T23:33:15.677Z,72.60
2018-12-07T23:35:45.262Z,65.27
2018-12-07T23:38:14.629Z,63.60
2018-12-07T23:40:44.079Z,60.73
2018-12-07T23:43:13.585Z,60.50
2018-12-07T23:45:43.354Z,50.93
2018-12-07T23:48:13.000Z,56.67
2018-12-07T23:50:42.496Z,56.03
2018-12-07T23:53:12.150Z,55.80
2018-12-07T23:55:41.549Z,53.53
2018-12-07T23:58:10.945Z,53.23
